sensor_id;sensor_type;location;lat;lon;timestamp;P1;durP1;ratioP1;P2;durP2;ratioP2
13807;SDS011;40769;51.512;5.494;2023-03-03T00:01:04;18.93;;;16.40;;
13807;SDS011;40769;51.512;5.494;2023-03-03T00:03:30;20.73;;;17.77;;
13807;SDS011;40769;51.512;5.494;2023-03-03T00:05:56;17.73;;;15.83;;
13807;SDS011;40769;51.512;5.494;2023-03-03T00:08:23;19.87;;;17.77;;
13807;SDS011;40769;51.512;5.494;2023-03-03T00:10:49;18.43;;;16.43;;
13807;SDS011;40769;51.512;5.494;2023-03-03T00:13:24;19.93;;;17.40;;
13807;SDS011;40769;51.512;5.494;2023-03-03T00:15:51;17.00;;;15.13;;
13807;SDS011;40769;51.512;5.494;2023-03-03T00:20:53;15.07;;;13.17;;
13807;SDS011;40769;51.512;5.494;2023-03-03T00:23:36;18.83;;;15.87;;
13807;SDS011;40769;51.512;5.494;2023-03-03T00:29:01;17.47;;;14.93;;
13807;SDS011;40769;51.512;5.494;2023-03-03T00:31:44;17.30;;;14.63;;
13807;SDS011;40769;51.512;5.494;2023-03-03T00:36:41;19.23;;;17.07;;
13807;SDS011;40769;51.512;5.494;2023-03-03T00:42:12;18.20;;;15.73;;
13807;SDS011;40769;51.512;5.494;2023-03-03T00:50:39;16.73;;;14.87;;
13807;SDS011;40769;51.512;5.494;2023-03-03T00:53:04;20.97;;;16.97;;
13807;SDS011;40769;51.512;5.494;2023-03-03T00:55:44;19.10;;;15.43;;
13807;SDS011;40769;51.512;5.494;2023-03-03T00:58:11;18.67;;;16.10;;
13807;SDS011;40769;51.512;5.494;2023-03-03T01:00:37;19.00;;;16.83;;
13807;SDS011;40769;51.512;5.494;2023-03-03T01:03:05;17.77;;;15.80;;
13807;SDS011;40769;51.512;5.494;2023-03-03T01:05:32;18.53;;;15.70;;
13807;SDS011;40769;51.512;5.494;2023-03-03T01:07:58;18.73;;;15.90;;
13807;SDS011;40769;51.512;5.494;2023-03-03T01:10:24;17.87;;;15.37;;
13807;SDS011;40769;51.512;5.494;2023-03-03T01:12:52;20.20;;;16.73;;
13807;SDS011;40769;51.512;5.494;2023-03-03T01:15:18;18.10;;;15.60;;
13807;SDS011;40769;51.512;5.494;2023-03-03T01:17:45;17.93;;;15.27;;
13807;SDS011;40769;51.512;5.494;2023-03-03T01:20:11;17.30;;;15.20;;
13807;SDS011;40769;51.512;5.494;2023-03-03T01:22:38;16.63;;;14.83;;
13807;SDS011;40769;51.512;5.494;2023-03-03T01:25:04;17.60;;;15.60;;
13807;SDS011;40769;51.512;5.494;2023-03-03T01:27:30;19.43;;;16.83;;
13807;SDS011;40769;51.512;5.494;2023-03-03T01:29:56;18.57;;;16.30;;
13807;SDS011;40769;51.512;5.494;2023-03-03T01:32:23;19.73;;;16.30;;
13807;SDS011;40769;51.512;5.494;2023-03-03T01:34:49;19.50;;;16.83;;
13807;SDS011;40769;51.512;5.494;2023-03-03T01:37:14;19.00;;;15.97;;
13807;SDS011;40769;51.512;5.494;2023-03-03T01:39:40;18.60;;;15.73;;
13807;SDS011;40769;51.512;5.494;2023-03-03T01:42:05;18.20;;;15.57;;
13807;SDS011;40769;51.512;5.494;2023-03-03T01:44:32;16.63;;;14.80;;
13807;SDS011;40769;51.512;5.494;2023-03-03T01:49:57;19.73;;;16.30;;
13807;SDS011;40769;51.512;5.494;2023-03-03T01:52:30;17.20;;;15.30;;
13807;SDS011;40769;51.512;5.494;2023-03-03T01:55:02;17.40;;;14.37;;
13807;SDS011;40769;51.512;5.494;2023-03-03T01:57:34;17.70;;;14.67;;
13807;SDS011;40769;51.512;5.494;2023-03-03T02:00:05;18.13;;;15.87;;
13807;SDS011;40769;51.512;5.494;2023-03-03T02:02:31;17.07;;;15.27;;
13807;SDS011;40769;51.512;5.494;2023-03-03T02:04:58;17.33;;;15.27;;
13807;SDS011;40769;51.512;5.494;2023-03-03T02:07:24;17.77;;;15.83;;
13807;SDS011;40769;51.512;5.494;2023-03-03T02:09:56;18.10;;;15.27;;
13807;SDS011;40769;51.512;5.494;2023-03-03T02:12:30;16.60;;;14.10;;
13807;SDS011;40769;51.512;5.494;2023-03-03T02:15:15;16.77;;;14.97;;
13807;SDS011;40769;51.512;5.494;2023-03-03T02:17:42;16.97;;;14.67;;
13807;SDS011;40769;51.512;5.494;2023-03-03T02:25:30;19.00;;;16.10;;
13807;SDS011;40769;51.512;5.494;2023-03-03T02:28:07;18.00;;;15.13;;
13807;SDS011;40769;51.512;5.494;2023-03-03T02:30:35;16.40;;;14.03;;
13807;SDS011;40769;51.512;5.494;2023-03-03T02:33:02;16.33;;;14.57;;
13807;SDS011;40769;51.512;5.494;2023-03-03T02:35:33;17.67;;;15.37;;
13807;SDS011;40769;51.512;5.494;2023-03-03T02:38:48;18.10;;;15.47;;
13807;SDS011;40769;51.512;5.494;2023-03-03T02:46:17;14.67;;;12.57;;
13807;SDS011;40769;51.512;5.494;2023-03-03T02:48:43;17.13;;;14.13;;
13807;SDS011;40769;51.512;5.494;2023-03-03T02:51:09;17.00;;;14.93;;
13807;SDS011;40769;51.512;5.494;2023-03-03T02:53:35;15.77;;;14.07;;
13807;SDS011;40769;51.512;5.494;2023-03-03T02:56:00;16.90;;;15.10;;
13807;SDS011;40769;51.512;5.494;2023-03-03T02:58:28;15.20;;;13.37;;
13807;SDS011;40769;51.512;5.494;2023-03-03T03:00:54;15.67;;;13.97;;
13807;SDS011;40769;51.512;5.494;2023-03-03T03:03:19;16.43;;;13.77;;
13807;SDS011;40769;51.512;5.494;2023-03-03T03:05:45;14.90;;;13.27;;
13807;SDS011;40769;51.512;5.494;2023-03-03T03:08:11;12.67;;;11.30;;
13807;SDS011;40769;51.512;5.494;2023-03-03T03:10:37;13.53;;;11.40;;
13807;SDS011;40769;51.512;5.494;2023-03-03T03:13:03;14.10;;;12.17;;
13807;SDS011;40769;51.512;5.494;2023-03-03T03:15:28;16.03;;;13.80;;
13807;SDS011;40769;51.512;5.494;2023-03-03T03:17:54;16.47;;;14.47;;
13807;SDS011;40769;51.512;5.494;2023-03-03T03:20:20;15.40;;;13.73;;
13807;SDS011;40769;51.512;5.494;2023-03-03T03:22:46;15.73;;;13.27;;
13807;SDS011;40769;51.512;5.494;2023-03-03T03:25:11;16.83;;;13.97;;
13807;SDS011;40769;51.512;5.494;2023-03-03T03:27:37;14.87;;;13.27;;
13807;SDS011;40769;51.512;5.494;2023-03-03T03:30:03;15.77;;;13.10;;
13807;SDS011;40769;51.512;5.494;2023-03-03T03:32:29;15.77;;;13.50;;
13807;SDS011;40769;51.512;5.494;2023-03-03T03:34:54;13.97;;;12.27;;
13807;SDS011;40769;51.512;5.494;2023-03-03T03:37:20;17.00;;;14.20;;
13807;SDS011;40769;51.512;5.494;2023-03-03T03:39:46;15.73;;;13.43;;
13807;SDS011;40769;51.512;5.494;2023-03-03T03:42:11;15.37;;;12.83;;
13807;SDS011;40769;51.512;5.494;2023-03-03T03:44:37;14.43;;;12.80;;
13807;SDS011;40769;51.512;5.494;2023-03-03T03:47:02;15.73;;;13.20;;
13807;SDS011;40769;51.512;5.494;2023-03-03T03:49:28;15.83;;;13.43;;
13807;SDS011;40769;51.512;5.494;2023-03-03T03:51:54;18.67;;;14.80;;
13807;SDS011;40769;51.512;5.494;2023-03-03T03:54:19;16.37;;;14.43;;
13807;SDS011;40769;51.512;5.494;2023-03-03T03:56:45;16.47;;;14.40;;
13807;SDS011;40769;51.512;5.494;2023-03-03T03:59:11;19.30;;;15.70;;
13807;SDS011;40769;51.512;5.494;2023-03-03T04:01:36;18.10;;;15.67;;
13807;SDS011;40769;51.512;5.494;2023-03-03T04:04:02;17.03;;;14.77;;
13807;SDS011;40769;51.512;5.494;2023-03-03T04:06:29;18.90;;;15.40;;
13807;SDS011;40769;51.512;5.494;2023-03-03T04:08:54;18.50;;;16.03;;
13807;SDS011;40769;51.512;5.494;2023-03-03T04:11:20;18.33;;;15.87;;
13807;SDS011;40769;51.512;5.494;2023-03-03T04:13:46;17.87;;;15.30;;
13807;SDS011;40769;51.512;5.494;2023-03-03T04:16:12;18.03;;;15.00;;
13807;SDS011;40769;51.512;5.494;2023-03-03T04:18:38;16.33;;;14.20;;
13807;SDS011;40769;51.512;5.494;2023-03-03T04:21:05;17.23;;;14.80;;
13807;SDS011;40769;51.512;5.494;2023-03-03T04:23:31;16.73;;;14.27;;
13807;SDS011;40769;51.512;5.494;2023-03-03T04:25:56;17.33;;;13.53;;
13807;SDS011;40769;51.512;5.494;2023-03-03T04:28:22;16.73;;;14.43;;
13807;SDS011;40769;51.512;5.494;2023-03-03T04:30:49;17.93;;;14.90;;
13807;SDS011;40769;51.512;5.494;2023-03-03T04:33:14;17.57;;;14.47;;
13807;SDS011;40769;51.512;5.494;2023-03-03T04:35:40;16.10;;;14.13;;
13807;SDS011;40769;51.512;5.494;2023-03-03T04:38:06;16.80;;;14.13;;
13807;SDS011;40769;51.512;5.494;2023-03-03T04:40:31;15.80;;;13.20;;
13807;SDS011;40769;51.512;5.494;2023-03-03T04:42:57;17.10;;;13.83;;
13807;SDS011;40769;51.512;5.494;2023-03-03T04:45:22;18.53;;;15.00;;
13807;SDS011;40769;51.512;5.494;2023-03-03T04:47:48;17.13;;;14.63;;
13807;SDS011;40769;51.512;5.494;2023-03-03T04:50:14;16.80;;;14.40;;
13807;SDS011;40769;51.512;5.494;2023-03-03T04:52:40;15.33;;;13.13;;
13807;SDS011;40769;51.512;5.494;2023-03-03T04:55:06;17.40;;;15.40;;
13807;SDS011;40769;51.512;5.494;2023-03-03T04:57:32;16.10;;;13.87;;
13807;SDS011;40769;51.512;5.494;2023-03-03T04:59:57;17.87;;;15.40;;
13807;SDS011;40769;51.512;5.494;2023-03-03T05:02:23;18.73;;;15.80;;
13807;SDS011;40769;51.512;5.494;2023-03-03T05:04:48;18.20;;;15.57;;
13807;SDS011;40769;51.512;5.494;2023-03-03T05:07:14;17.37;;;14.60;;
13807;SDS011;40769;51.512;5.494;2023-03-03T05:09:40;19.87;;;15.73;;
13807;SDS011;40769;51.512;5.494;2023-03-03T05:12:05;18.90;;;15.77;;
13807;SDS011;40769;51.512;5.494;2023-03-03T05:14:31;18.97;;;15.87;;
13807;SDS011;40769;51.512;5.494;2023-03-03T05:16:57;16.80;;;14.67;;
13807;SDS011;40769;51.512;5.494;2023-03-03T05:19:22;18.10;;;14.93;;
13807;SDS011;40769;51.512;5.494;2023-03-03T05:21:49;18.80;;;15.87;;
13807;SDS011;40769;51.512;5.494;2023-03-03T05:24:15;20.23;;;16.57;;
13807;SDS011;40769;51.512;5.494;2023-03-03T05:26:40;17.73;;;15.50;;
13807;SDS011;40769;51.512;5.494;2023-03-03T05:29:06;18.00;;;15.30;;
13807;SDS011;40769;51.512;5.494;2023-03-03T05:31:33;19.43;;;15.47;;
13807;SDS011;40769;51.512;5.494;2023-03-03T05:33:59;18.30;;;15.17;;
13807;SDS011;40769;51.512;5.494;2023-03-03T05:36:24;17.13;;;14.73;;
13807;SDS011;40769;51.512;5.494;2023-03-03T05:38:50;17.47;;;15.10;;
13807;SDS011;40769;51.512;5.494;2023-03-03T05:41:15;18.77;;;16.07;;
13807;SDS011;40769;51.512;5.494;2023-03-03T05:43:41;18.67;;;16.43;;
13807;SDS011;40769;51.512;5.494;2023-03-03T05:46:07;15.47;;;13.83;;
13807;SDS011;40769;51.512;5.494;2023-03-03T05:48:33;19.57;;;14.93;;
13807;SDS011;40769;51.512;5.494;2023-03-03T05:50:59;18.13;;;15.33;;
13807;SDS011;40769;51.512;5.494;2023-03-03T05:53:25;17.80;;;14.63;;
13807;SDS011;40769;51.512;5.494;2023-03-03T05:55:51;18.63;;;15.37;;
13807;SDS011;40769;51.512;5.494;2023-03-03T05:58:17;18.27;;;15.40;;
13807;SDS011;40769;51.512;5.494;2023-03-03T06:00:42;16.40;;;13.55;;
13807;SDS011;40769;51.512;5.494;2023-03-03T06:03:08;19.23;;;15.60;;
13807;SDS011;40769;51.512;5.494;2023-03-03T06:05:34;17.55;;;14.95;;
13807;SDS011;40769;51.512;5.494;2023-03-03T06:07:59;18.63;;;15.10;;
13807;SDS011;40769;51.512;5.494;2023-03-03T06:10:25;17.73;;;14.80;;
13807;SDS011;40769;51.512;5.494;2023-03-03T06:12:51;17.50;;;14.20;;
13807;SDS011;40769;51.512;5.494;2023-03-03T06:15:16;19.77;;;15.43;;
13807;SDS011;40769;51.512;5.494;2023-03-03T06:17:42;19.13;;;14.50;;
13807;SDS011;40769;51.512;5.494;2023-03-03T06:20:08;16.10;;;13.93;;
13807;SDS011;40769;51.512;5.494;2023-03-03T06:22:34;16.83;;;15.02;;
13807;SDS011;40769;51.512;5.494;2023-03-03T06:25:00;18.80;;;15.93;;
13807;SDS011;40769;51.512;5.494;2023-03-03T06:27:26;16.00;;;13.65;;
13807;SDS011;40769;51.512;5.494;2023-03-03T06:29:51;16.13;;;14.20;;
13807;SDS011;40769;51.512;5.494;2023-03-03T06:32:17;15.25;;;13.00;;
13807;SDS011;40769;51.512;5.494;2023-03-03T06:34:43;15.32;;;13.63;;
13807;SDS011;40769;51.512;5.494;2023-03-03T06:37:08;18.13;;;14.13;;
13807;SDS011;40769;51.512;5.494;2023-03-03T06:39:34;16.83;;;13.93;;
13807;SDS011;40769;51.512;5.494;2023-03-03T06:42:00;15.90;;;14.13;;
13807;SDS011;40769;51.512;5.494;2023-03-03T06:44:26;15.07;;;13.20;;
13807;SDS011;40769;51.512;5.494;2023-03-03T06:46:51;17.50;;;14.30;;
13807;SDS011;40769;51.512;5.494;2023-03-03T06:49:17;15.13;;;12.75;;
13807;SDS011;40769;51.512;5.494;2023-03-03T06:51:43;17.37;;;13.97;;
13807;SDS011;40769;51.512;5.494;2023-03-03T06:56:36;18.17;;;14.50;;
13807;SDS011;40769;51.512;5.494;2023-03-03T06:59:05;18.40;;;15.23;;
13807;SDS011;40769;51.512;5.494;2023-03-03T07:01:39;17.07;;;14.70;;
13807;SDS011;40769;51.512;5.494;2023-03-03T07:06:43;12.23;;;9.87;;
13807;SDS011;40769;51.512;5.494;2023-03-03T07:09:22;16.80;;;13.83;;
13807;SDS011;40769;51.512;5.494;2023-03-03T07:11:50;17.30;;;13.67;;
13807;SDS011;40769;51.512;5.494;2023-03-03T07:14:18;16.77;;;14.50;;
13807;SDS011;40769;51.512;5.494;2023-03-03T07:16:45;15.93;;;13.43;;
13807;SDS011;40769;51.512;5.494;2023-03-03T07:19:18;16.05;;;13.27;;
13807;SDS011;40769;51.512;5.494;2023-03-03T07:21:47;18.40;;;14.30;;
13807;SDS011;40769;51.512;5.494;2023-03-03T07:24:26;18.08;;;15.75;;
13807;SDS011;40769;51.512;5.494;2023-03-03T07:26:53;19.67;;;15.85;;
13807;SDS011;40769;51.512;5.494;2023-03-03T07:29:32;19.10;;;15.90;;
13807;SDS011;40769;51.512;5.494;2023-03-03T07:31:58;18.20;;;15.07;;
13807;SDS011;40769;51.512;5.494;2023-03-03T07:37:17;16.92;;;14.60;;
13807;SDS011;40769;51.512;5.494;2023-03-03T07:39:46;15.77;;;12.77;;
13807;SDS011;40769;51.512;5.494;2023-03-03T07:44:46;18.30;;;14.85;;
13807;SDS011;40769;51.512;5.494;2023-03-03T07:47:19;18.10;;;14.88;;
13807;SDS011;40769;51.512;5.494;2023-03-03T07:49:50;17.63;;;15.05;;
13807;SDS011;40769;51.512;5.494;2023-03-03T07:52:29;18.37;;;14.83;;
13807;SDS011;40769;51.512;5.494;2023-03-03T07:55:18;15.57;;;13.60;;
13807;SDS011;40769;51.512;5.494;2023-03-03T08:03:11;16.08;;;13.55;;
13807;SDS011;40769;51.512;5.494;2023-03-03T08:05:50;16.85;;;13.50;;
13807;SDS011;40769;51.512;5.494;2023-03-03T08:08:26;14.52;;;12.65;;
13807;SDS011;40769;51.512;5.494;2023-03-03T08:10:57;15.85;;;14.13;;
13807;SDS011;40769;51.512;5.494;2023-03-03T08:15:55;14.38;;;12.85;;
13807;SDS011;40769;51.512;5.494;2023-03-03T08:18:45;13.80;;;11.02;;
13807;SDS011;40769;51.512;5.494;2023-03-03T08:21:16;15.32;;;12.82;;
13807;SDS011;40769;51.512;5.494;2023-03-03T08:23:49;16.20;;;13.63;;
13807;SDS011;40769;51.512;5.494;2023-03-03T08:26:17;17.17;;;13.85;;
13807;SDS011;40769;51.512;5.494;2023-03-03T08:28:46;17.85;;;14.15;;
13807;SDS011;40769;51.512;5.494;2023-03-03T08:31:12;16.48;;;13.20;;
13807;SDS011;40769;51.512;5.494;2023-03-03T08:33:38;16.23;;;12.93;;
13807;SDS011;40769;51.512;5.494;2023-03-03T08:36:04;16.33;;;13.55;;
13807;SDS011;40769;51.512;5.494;2023-03-03T08:38:31;14.50;;;12.88;;
13807;SDS011;40769;51.512;5.494;2023-03-03T08:40:56;13.75;;;12.27;;
13807;SDS011;40769;51.512;5.494;2023-03-03T08:43:22;13.73;;;11.18;;
13807;SDS011;40769;51.512;5.494;2023-03-03T08:45:49;13.50;;;11.77;;
13807;SDS011;40769;51.512;5.494;2023-03-03T08:48:16;14.68;;;12.38;;
13807;SDS011;40769;51.512;5.494;2023-03-03T08:50:42;16.02;;;13.23;;
13807;SDS011;40769;51.512;5.494;2023-03-03T08:53:09;15.45;;;13.15;;
13807;SDS011;40769;51.512;5.494;2023-03-03T08:55:36;14.23;;;12.48;;
13807;SDS011;40769;51.512;5.494;2023-03-03T08:58:01;14.70;;;12.82;;
13807;SDS011;40769;51.512;5.494;2023-03-03T09:00:27;14.98;;;11.88;;
13807;SDS011;40769;51.512;5.494;2023-03-03T09:02:52;16.58;;;13.40;;
13807;SDS011;40769;51.512;5.494;2023-03-03T09:05:18;16.17;;;13.43;;
13807;SDS011;40769;51.512;5.494;2023-03-03T09:07:45;15.00;;;13.05;;
13807;SDS011;40769;51.512;5.494;2023-03-03T09:10:13;15.80;;;12.88;;
13807;SDS011;40769;51.512;5.494;2023-03-03T09:12:43;19.23;;;15.10;;
13807;SDS011;40769;51.512;5.494;2023-03-03T09:15:14;16.45;;;14.32;;
13807;SDS011;40769;51.512;5.494;2023-03-03T09:17:41;16.95;;;14.63;;
13807;SDS011;40769;51.512;5.494;2023-03-03T09:22:49;16.80;;;14.05;;
13807;SDS011;40769;51.512;5.494;2023-03-03T09:25:32;15.35;;;12.93;;
13807;SDS011;40769;51.512;5.494;2023-03-03T09:28:00;15.45;;;13.02;;
13807;SDS011;40769;51.512;5.494;2023-03-03T09:35:45;14.07;;;11.55;;
13807;SDS011;40769;51.512;5.494;2023-03-03T09:40:57;13.15;;;11.50;;
13807;SDS011;40769;51.512;5.494;2023-03-03T09:54:50;11.65;;;10.43;;
13807;SDS011;40769;51.512;5.494;2023-03-03T09:57:34;12.60;;;10.80;;
13807;SDS011;40769;51.512;5.494;2023-03-03T10:03:44;11.13;;;9.85;;
13807;SDS011;40769;51.512;5.494;2023-03-03T10:12:21;13.18;;;10.77;;
13807;SDS011;40769;51.512;5.494;2023-03-03T10:17:48;11.38;;;10.23;;
13807;SDS011;40769;51.512;5.494;2023-03-03T10:40:25;10.40;;;9.23;;
13807;SDS011;40769;51.512;5.494;2023-03-03T10:43:12;11.25;;;10.05;;
13807;SDS011;40769;51.512;5.494;2023-03-03T10:57:25;10.30;;;9.18;;
13807;SDS011;40769;51.512;5.494;2023-03-03T11:02:46;10.77;;;9.23;;
13807;SDS011;40769;51.512;5.494;2023-03-03T11:05:34;10.23;;;9.23;;
13807;SDS011;40769;51.512;5.494;2023-03-03T11:08:23;10.23;;;8.85;;
13807;SDS011;40769;51.512;5.494;2023-03-03T11:11:10;10.75;;;9.52;;
13807;SDS011;40769;51.512;5.494;2023-03-03T11:17:04;9.63;;;8.63;;
13807;SDS011;40769;51.512;5.494;2023-03-03T11:20:07;10.00;;;9.00;;
13807;SDS011;40769;51.512;5.494;2023-03-03T11:30:41;8.40;;;7.32;;
13807;SDS011;40769;51.512;5.494;2023-03-03T11:33:31;7.53;;;6.82;;
13807;SDS011;40769;51.512;5.494;2023-03-03T11:44:32;9.75;;;8.10;;
13807;SDS011;40769;51.512;5.494;2023-03-03T11:47:05;8.73;;;7.82;;
13807;SDS011;40769;51.512;5.494;2023-03-03T11:52:54;9.15;;;8.20;;
13807;SDS011;40769;51.512;5.494;2023-03-03T11:55:41;9.23;;;8.32;;
13807;SDS011;40769;51.512;5.494;2023-03-03T11:58:19;9.05;;;8.25;;
13807;SDS011;40769;51.512;5.494;2023-03-03T12:00:53;8.85;;;7.63;;
13807;SDS011;40769;51.512;5.494;2023-03-03T12:09:36;8.23;;;7.43;;
13807;SDS011;40769;51.512;5.494;2023-03-03T12:12:11;8.00;;;7.20;;
13807;SDS011;40769;51.512;5.494;2023-03-03T12:20:07;8.85;;;7.75;;
13807;SDS011;40769;51.512;5.494;2023-03-03T12:23:09;8.63;;;7.72;;
13807;SDS011;40769;51.512;5.494;2023-03-03T12:25:46;7.60;;;6.78;;
13807;SDS011;40769;51.512;5.494;2023-03-03T12:28:23;8.20;;;7.40;;
13807;SDS011;40769;51.512;5.494;2023-03-03T12:39:04;7.55;;;6.75;;
13807;SDS011;40769;51.512;5.494;2023-03-03T12:41:53;7.20;;;6.50;;
13807;SDS011;40769;51.512;5.494;2023-03-03T12:44:49;7.10;;;5.68;;
13807;SDS011;40769;51.512;5.494;2023-03-03T12:47:45;6.32;;;5.72;;
13807;SDS011;40769;51.512;5.494;2023-03-03T12:58:34;6.10;;;5.55;;
13807;SDS011;40769;51.512;5.494;2023-03-03T13:06:41;6.22;;;5.45;;
13807;SDS011;40769;51.512;5.494;2023-03-03T13:17:23;5.68;;;4.97;;
13807;SDS011;40769;51.512;5.494;2023-03-03T13:19:59;5.78;;;5.18;;
13807;SDS011;40769;51.512;5.494;2023-03-03T13:22:35;6.80;;;5.75;;
13807;SDS011;40769;51.512;5.494;2023-03-03T13:27:47;4.78;;;4.30;;
13807;SDS011;40769;51.512;5.494;2023-03-03T13:30:27;5.63;;;5.00;;
13807;SDS011;40769;51.512;5.494;2023-03-03T13:33:02;6.45;;;5.78;;
13807;SDS011;40769;51.512;5.494;2023-03-03T13:35:45;6.75;;;5.88;;
13807;SDS011;40769;51.512;5.494;2023-03-03T13:38:20;5.43;;;4.93;;
13807;SDS011;40769;51.512;5.494;2023-03-03T13:46:15;6.18;;;5.57;;
13807;SDS011;40769;51.512;5.494;2023-03-03T13:48:45;4.93;;;4.45;;
13807;SDS011;40769;51.512;5.494;2023-03-03T13:51:34;5.25;;;4.72;;
13807;SDS011;40769;51.512;5.494;2023-03-03T14:05:36;4.57;;;4.18;;
13807;SDS011;40769;51.512;5.494;2023-03-03T14:07:48;4.20;;;3.80;;
13807;SDS011;40769;51.512;5.494;2023-03-03T14:10:32;5.43;;;4.57;;
13807;SDS011;40769;51.512;5.494;2023-03-03T14:13:12;5.43;;;4.57;;
13807;SDS011;40769;51.512;5.494;2023-03-03T14:15:57;4.90;;;4.45;;
13807;SDS011;40769;51.512;5.494;2023-03-03T14:18:34;4.10;;;3.70;;
13807;SDS011;40769;51.512;5.494;2023-03-03T14:21:15;4.57;;;4.18;;
13807;SDS011;40769;51.512;5.494;2023-03-03T14:26:24;5.13;;;4.72;;
13807;SDS011;40769;51.512;5.494;2023-03-03T14:28:50;5.32;;;4.78;;
13807;SDS011;40769;51.512;5.494;2023-03-03T14:31:28;5.60;;;5.00;;
13807;SDS011;40769;51.512;5.494;2023-03-03T14:36:47;4.72;;;4.25;;
13807;SDS011;40769;51.512;5.494;2023-03-03T14:41:54;4.68;;;4.28;;
13807;SDS011;40769;51.512;5.494;2023-03-03T14:44:25;4.80;;;4.40;;
13807;SDS011;40769;51.512;5.494;2023-03-03T14:49:28;4.07;;;3.67;;
13807;SDS011;40769;51.512;5.494;2023-03-03T14:52:00;4.38;;;3.78;;
13807;SDS011;40769;51.512;5.494;2023-03-03T14:54:36;3.95;;;3.53;;
13807;SDS011;40769;51.512;5.494;2023-03-03T14:59:34;4.07;;;3.67;;
13807;SDS011;40769;51.512;5.494;2023-03-03T15:04:46;4.00;;;3.60;;
13807;SDS011;40769;51.512;5.494;2023-03-03T15:07:19;4.00;;;3.60;;
13807;SDS011;40769;51.512;5.494;2023-03-03T15:09:59;3.67;;;3.38;;
13807;SDS011;40769;51.512;5.494;2023-03-03T15:25:44;3.30;;;3.00;;
13807;SDS011;40769;51.512;5.494;2023-03-03T15:41:40;3.20;;;2.90;;
13807;SDS011;40769;51.512;5.494;2023-03-03T15:47:01;4.45;;;2.80;;
13807;SDS011;40769;51.512;5.494;2023-03-03T15:52:47;2.50;;;2.30;;
13807;SDS011;40769;51.512;5.494;2023-03-03T15:58:04;3.28;;;2.97;;
13807;SDS011;40769;51.512;5.494;2023-03-03T16:03:39;3.13;;;2.83;;
13807;SDS011;40769;51.512;5.494;2023-03-03T16:06:21;3.97;;;3.42;;
13807;SDS011;40769;51.512;5.494;2023-03-03T16:23:12;3.28;;;2.92;;
13807;SDS011;40769;51.512;5.494;2023-03-03T16:31:16;3.33;;;2.92;;
13807;SDS011;40769;51.512;5.494;2023-03-03T16:33:54;3.50;;;3.08;;
13807;SDS011;40769;51.512;5.494;2023-03-03T16:39:57;2.35;;;2.15;;
13807;SDS011;40769;51.512;5.494;2023-03-03T16:42:31;2.75;;;2.22;;
13807;SDS011;40769;51.512;5.494;2023-03-03T16:47:28;2.30;;;2.10;;
13807;SDS011;40769;51.512;5.494;2023-03-03T16:50:22;2.35;;;2.10;;
13807;SDS011;40769;51.512;5.494;2023-03-03T16:53:17;2.85;;;2.47;;
13807;SDS011;40769;51.512;5.494;2023-03-03T17:12:13;2.33;;;1.90;;
13807;SDS011;40769;51.512;5.494;2023-03-03T17:31:00;1.40;;;1.30;;
13807;SDS011;40769;51.512;5.494;2023-03-03T17:44:58;1.88;;;1.50;;
13807;SDS011;40769;51.512;5.494;2023-03-03T17:50:55;1.88;;;1.45;;
13807;SDS011;40769;51.512;5.494;2023-03-03T18:01:52;3.55;;;1.73;;
13807;SDS011;40769;51.512;5.494;2023-03-03T18:04:41;2.08;;;1.40;;
13807;SDS011;40769;51.512;5.494;2023-03-03T18:07:30;1.75;;;1.52;;
13807;SDS011;40769;51.512;5.494;2023-03-03T18:21:29;2.00;;;1.48;;
13807;SDS011;40769;51.512;5.494;2023-03-03T18:26:49;2.40;;;1.33;;
13807;SDS011;40769;51.512;5.494;2023-03-03T18:29:21;1.52;;;1.38;;
13807;SDS011;40769;51.512;5.494;2023-03-03T18:37:10;1.85;;;1.50;;
13807;SDS011;40769;51.512;5.494;2023-03-03T18:50:39;2.30;;;1.15;;
13807;SDS011;40769;51.512;5.494;2023-03-03T19:03:24;1.95;;;1.50;;
13807;SDS011;40769;51.512;5.494;2023-03-03T19:05:53;2.22;;;1.50;;
13807;SDS011;40769;51.512;5.494;2023-03-03T19:16:41;2.17;;;1.08;;
13807;SDS011;40769;51.512;5.494;2023-03-03T19:19:12;2.03;;;1.10;;
13807;SDS011;40769;51.512;5.494;2023-03-03T19:21:40;2.03;;;1.17;;
13807;SDS011;40769;51.512;5.494;2023-03-03T19:38:26;1.83;;;1.50;;
13807;SDS011;40769;51.512;5.494;2023-03-03T19:43:43;2.65;;;1.40;;
13807;SDS011;40769;51.512;5.494;2023-03-03T19:46:46;1.83;;;1.20;;
13807;SDS011;40769;51.512;5.494;2023-03-03T19:54:52;2.53;;;1.30;;
13807;SDS011;40769;51.512;5.494;2023-03-03T20:00:15;2.42;;;1.33;;
13807;SDS011;40769;51.512;5.494;2023-03-03T20:03:18;2.33;;;1.40;;
13807;SDS011;40769;51.512;5.494;2023-03-03T20:08:40;2.65;;;1.45;;
13807;SDS011;40769;51.512;5.494;2023-03-03T20:11:22;1.60;;;1.33;;
13807;SDS011;40769;51.512;5.494;2023-03-03T20:16:41;2.60;;;1.27;;
13807;SDS011;40769;51.512;5.494;2023-03-03T20:22:15;1.40;;;1.05;;
13807;SDS011;40769;51.512;5.494;2023-03-03T20:25:05;1.50;;;0.90;;
13807;SDS011;40769;51.512;5.494;2023-03-03T20:28:05;2.13;;;1.40;;
13807;SDS011;40769;51.512;5.494;2023-03-03T20:34:07;3.60;;;1.42;;
13807;SDS011;40769;51.512;5.494;2023-03-03T20:37:05;2.35;;;1.77;;
13807;SDS011;40769;51.512;5.494;2023-03-03T20:39:47;2.60;;;1.50;;
13807;SDS011;40769;51.512;5.494;2023-03-03T20:50:37;2.30;;;1.60;;
13807;SDS011;40769;51.512;5.494;2023-03-03T20:53:29;2.53;;;1.70;;
13807;SDS011;40769;51.512;5.494;2023-03-03T20:56:04;4.03;;;2.13;;
13807;SDS011;40769;51.512;5.494;2023-03-03T21:06:52;2.78;;;2.05;;
13807;SDS011;40769;51.512;5.494;2023-03-03T21:09:34;2.85;;;1.73;;
13807;SDS011;40769;51.512;5.494;2023-03-03T21:12:24;3.20;;;2.17;;
13807;SDS011;40769;51.512;5.494;2023-03-03T21:14:59;4.65;;;2.60;;
13807;SDS011;40769;51.512;5.494;2023-03-03T21:17:29;3.88;;;2.15;;
13807;SDS011;40769;51.512;5.494;2023-03-03T21:19:59;4.10;;;2.28;;
13807;SDS011;40769;51.512;5.494;2023-03-03T21:22:46;5.50;;;2.10;;
13807;SDS011;40769;51.512;5.494;2023-03-03T21:25:40;4.68;;;2.40;;
13807;SDS011;40769;51.512;5.494;2023-03-03T21:31:12;5.18;;;2.40;;
13807;SDS011;40769;51.512;5.494;2023-03-03T21:36:16;4.80;;;2.25;;
13807;SDS011;40769;51.512;5.494;2023-03-03T21:38:48;6.75;;;2.72;;
13807;SDS011;40769;51.512;5.494;2023-03-03T21:41:15;4.45;;;2.58;;
13807;SDS011;40769;51.512;5.494;2023-03-03T21:43:43;4.22;;;2.20;;
13807;SDS011;40769;51.512;5.494;2023-03-03T21:46:10;6.30;;;2.70;;
13807;SDS011;40769;51.512;5.494;2023-03-03T21:48:39;5.70;;;2.42;;
13807;SDS011;40769;51.512;5.494;2023-03-03T21:51:06;4.80;;;2.40;;
13807;SDS011;40769;51.512;5.494;2023-03-03T21:53:32;3.42;;;2.22;;
13807;SDS011;40769;51.512;5.494;2023-03-03T21:55:59;4.20;;;1.90;;
13807;SDS011;40769;51.512;5.494;2023-03-03T21:58:24;3.65;;;1.80;;
13807;SDS011;40769;51.512;5.494;2023-03-03T22:00:50;2.38;;;1.58;;
13807;SDS011;40769;51.512;5.494;2023-03-03T22:03:15;7.85;;;2.40;;
13807;SDS011;40769;51.512;5.494;2023-03-03T22:05:44;4.50;;;2.65;;
13807;SDS011;40769;51.512;5.494;2023-03-03T22:08:12;6.03;;;2.78;;
13807;SDS011;40769;51.512;5.494;2023-03-03T22:10:39;6.50;;;3.15;;
13807;SDS011;40769;51.512;5.494;2023-03-03T22:13:05;6.30;;;2.92;;
13807;SDS011;40769;51.512;5.494;2023-03-03T22:15:30;6.40;;;3.10;;
13807;SDS011;40769;51.512;5.494;2023-03-03T22:17:58;5.00;;;2.70;;
13807;SDS011;40769;51.512;5.494;2023-03-03T22:20:24;4.72;;;2.58;;